Terminal Aerodrome Forecast
Issued by NWS Wilmington, NC

Home | Current Version | Previous Version | Text Only | Print | Product List | Glossary On
Versions: 1 2 3 4 5 6 7 8 9 10 11 12 13 14
000
FTUS42 KILM 292338
TAFILM
TAF
KILM 292338Z 3000/3024 14011KT P6SM VCSH SCT030 SCT050
     FM300200 12004KT P6SM -RA FEW007 SCT015 BKN025
     FM300700 13004KT 6SM BR VCSH SCT008 OVC025
     FM301400 14009KT P6SM -RA BKN025 OVC050
     FM302200 11008KT P6SM -SHRA SCT025 OVC050=

USA.gov is the U.S. government's official web portal to all federal, state and local government web resources and services.